Time;durP1;ratioP1;P1;durP2;ratioP2;P2;SDS_P1;SDS_P2;PMS_P1;PMS_P2;Temp;Humidity;BMP_temperature;BMP_pressure;BME280_temperature;BME280_humidity;BME280_pressure;Samples;Min_cycle;Max_cycle;Signal;HPM_P1;HPM_P2
2021/11/18 00:04:31;;;;;;;1.05;0.80;;;20.90;31.20;21.40;94841.00;;;;10414013;28;45963;-61
2021/11/18 00:09:32;;;;;;;0.90;0.70;;;20.80;31.10;21.30;94848.00;;;;10414087;28;45536;-61
2021/11/18 00:14:33;;;;;;;1.30;0.77;;;20.80;31.10;21.30;94843.00;;;;10413563;28;45189;-62
2021/11/18 00:19:34;;;;;;;1.40;0.80;;;20.80;31.10;21.40;94829.00;;;;10413731;28;45579;-61
2021/11/18 00:24:34;;;;;;;0.77;0.60;;;20.80;31.10;21.30;94822.00;;;;10438441;28;45210;-61
2021/11/18 00:29:35;;;;;;;1.40;0.55;;;20.80;31.90;21.30;94828.00;;;;10420489;28;45292;-61
2021/11/18 00:34:36;;;;;;;0.93;0.70;;;20.80;31.10;21.30;94843.00;;;;10420110;28;46761;-61
2021/11/18 00:39:36;;;;;;;0.77;0.50;;;20.80;31.10;21.30;94846.00;;;;10419728;28;47191;-62
2021/11/18 00:44:37;;;;;;;0.60;0.60;;;20.80;31.10;21.30;94825.00;;;;10420278;28;45195;-61
2021/11/18 00:49:38;;;;;;;1.58;0.90;;;20.80;31.20;21.30;94837.00;;;;10415968;28;46105;-61
2021/11/18 00:54:38;;;;;;;0.63;0.60;;;20.80;31.20;21.30;94822.00;;;;10396366;28;45398;-60
2021/11/18 00:59:39;;;;;;;1.05;0.65;;;20.80;31.20;21.30;94844.00;;;;10361685;28;47216;-60
2021/11/18 01:04:41;;;;;;;0.88;0.60;;;20.80;31.20;21.30;94828.00;;;;10378850;28;45267;-60
2021/11/18 01:09:42;;;;;;;1.10;0.70;;;20.80;31.20;21.30;94846.00;;;;10377703;28;45181;-61
2021/11/18 01:14:43;;;;;;;0.85;0.70;;;20.80;31.20;21.30;94849.00;;;;10361209;28;47873;-61
2021/11/18 01:19:44;;;;;;;1.00;0.70;;;20.80;31.30;21.20;94844.00;;;;10377752;28;46063;-61
2021/11/18 01:24:46;;;;;;;0.88;0.60;;;20.70;31.20;21.30;94844.00;;;;10425168;28;45253;-61
2021/11/18 01:29:46;;;;;;;0.52;0.52;;;20.70;31.20;21.30;94852.00;;;;10418427;28;45645;-61
2021/11/18 01:34:48;;;;;;;1.52;0.60;;;20.70;31.20;21.20;94850.00;;;;10436846;28;45278;-61
2021/11/18 01:39:49;;;;;;;0.80;0.60;;;20.70;31.30;21.20;94845.00;;;;10436826;28;46094;-61
2021/11/18 01:44:51;;;;;;;0.52;0.50;;;20.70;31.30;21.20;94832.00;;;;10419331;28;46208;-61
2021/11/18 01:49:53;;;;;;;0.82;0.68;;;20.70;31.30;21.20;94816.00;;;;10395018;28;45349;-61
2021/11/18 01:54:54;;;;;;;0.77;0.50;;;20.70;31.30;21.20;94830.00;;;;10376711;28;45312;-61
2021/11/18 01:59:55;;;;;;;0.50;0.40;;;20.70;31.30;21.20;94821.00;;;;10373140;28;46061;-62
2021/11/18 02:05:29;;;;;;;0.50;0.40;;;20.70;31.30;21.20;94831.00;;;;10372564;28;45442;-61
2021/11/18 02:10:39;;;;;;;0.50;0.47;;;20.70;31.30;21.20;94823.00;;;;10376574;28;46438;-62
2021/11/18 02:15:46;;;;;;;0.75;0.40;;;20.70;31.30;21.20;94822.00;;;;10359023;28;47069;-62
2021/11/18 02:20:50;;;;;;;0.30;0.30;;;20.70;31.30;21.20;94813.00;;;;10393733;28;46498;-60
2021/11/18 02:25:53;;;;;;;0.50;0.50;;;20.70;31.30;21.20;94804.00;;;;10413887;28;45142;-62
2021/11/18 02:30:57;;;;;;;0.40;0.40;;;20.70;31.30;21.20;94820.00;;;;10416462;28;45303;-61
2021/11/18 02:35:59;;;;;;;0.50;0.50;;;20.60;31.30;21.20;94833.00;;;;10416077;28;45269;-62
2021/11/18 02:40:59;;;;;;;0.30;0.30;;;20.60;31.30;21.20;94831.00;;;;10416556;28;46542;-60
2021/11/18 02:46:00;;;;;;;0.68;0.40;;;20.70;31.30;21.20;94819.00;;;;10415148;28;46523;-61
2021/11/18 02:51:09;;;;;;;0.98;0.50;;;20.70;31.30;21.20;94831.00;;;;10366266;28;47338;-61
2021/11/18 02:56:11;;;;;;;0.93;0.50;;;20.60;31.30;21.20;94818.00;;;;10391894;28;45349;-60
2021/11/18 03:01:21;;;;;;;0.52;0.40;;;20.60;31.30;21.20;94819.00;;;;10357930;28;47500;-60
2021/11/18 03:06:22;;;;;;;0.50;0.40;;;20.60;31.30;21.10;94809.00;;;;10373860;28;45287;-60
2021/11/18 03:11:26;;;;;;;0.30;0.30;;;20.60;31.30;21.20;94804.00;;;;10374486;28;45276;-61
2021/11/18 03:16:27;;;;;;;0.60;0.40;;;20.60;31.30;21.10;94807.00;;;;10357187;28;47361;-61
2021/11/18 03:21:29;;;;;;;0.30;0.30;;;20.70;31.40;21.10;94813.00;;;;10359916;28;46993;-60
2021/11/18 03:26:32;;;;;;;0.50;0.40;;;20.70;31.40;21.10;94812.00;;;;10398030;28;47218;-61
2021/11/18 03:31:33;;;;;;;0.40;0.30;;;20.60;31.30;21.20;94814.00;;;;10398488;28;46876;-60
2021/11/18 03:36:36;;;;;;;0.28;0.28;;;20.70;31.30;21.10;94821.00;;;;10415159;28;45186;-61
2021/11/18 03:41:40;;;;;;;0.55;0.30;;;20.60;31.40;21.10;94830.00;;;;10398212;28;47370;-60
2021/11/18 03:46:55;;;;;;;0.77;0.47;;;20.60;31.40;21.10;94840.00;;;;10432140;28;45244;-61
2021/11/18 03:52:00;;;;;;;0.95;0.40;;;20.60;31.40;21.10;94844.00;;;;10357719;28;48131;-60
2021/11/18 03:57:02;;;;;;;0.52;0.40;;;20.60;31.30;21.10;94836.00;;;;10359821;28;47935;-60
2021/11/18 04:02:04;;;;;;;0.77;0.30;;;20.60;31.40;21.10;94840.00;;;;10380427;28;46702;-60
2021/11/18 04:07:06;;;;;;;0.30;0.30;;;20.60;31.40;21.10;94857.00;;;;10379607;28;45348;-61
2021/11/18 04:12:09;;;;;;;0.30;0.30;;;20.60;31.40;21.10;94839.00;;;;10379899;28;45664;-60
2021/11/18 04:17:10;;;;;;;0.30;0.30;;;20.60;31.40;21.10;94860.00;;;;10362249;28;48296;-60
2021/11/18 04:22:12;;;;;;;0.60;0.40;;;20.60;31.40;21.10;94861.00;;;;10388387;28;45573;-62
2021/11/18 04:27:13;;;;;;;0.30;0.30;;;20.60;31.40;21.10;94861.00;;;;10403337;28;47050;-60
2021/11/18 04:32:20;;;;;;;0.30;0.20;;;20.50;31.40;21.10;94866.00;;;;10403881;28;47464;-60
2021/11/18 04:37:22;;;;;;;0.22;0.20;;;20.60;31.40;21.10;94866.00;;;;10419956;28;45339;-61
2021/11/18 04:42:24;;;;;;;0.52;0.38;;;20.60;31.50;21.10;94879.00;;;;10420417;28;45144;-60
2021/11/18 04:47:24;;;;;;;0.40;0.40;;;20.60;31.50;21.10;94870.00;;;;10403933;28;45512;-61
2021/11/18 04:52:25;;;;;;;0.20;0.10;;;20.60;31.40;21.10;94880.00;;;;10385550;28;45299;-60
2021/11/18 04:57:28;;;;;;;0.30;0.30;;;20.50;31.40;21.10;94890.00;;;;10395444;28;45500;-60
2021/11/18 05:02:29;;;;;;;0.32;0.30;;;20.50;31.40;21.00;94894.00;;;;10366800;28;45244;-60
2021/11/18 05:07:30;;;;;;;0.28;0.28;;;20.50;31.40;21.00;94900.00;;;;10353952;28;45266;-60
2021/11/18 05:12:31;;;;;;;0.30;0.20;;;20.50;31.50;21.10;94906.00;;;;10371274;28;47162;-60
2021/11/18 05:17:31;;;;;;;0.32;0.30;;;20.50;31.50;21.10;94914.00;;;;10419608;28;45157;-61
2021/11/18 05:22:32;;;;;;;0.57;0.30;;;20.50;31.50;21.10;94906.00;;;;10407596;28;46182;-60
2021/11/18 05:27:33;;;;;;;0.10;0.10;;;20.60;31.60;21.20;94925.00;;;;10376744;28;45345;-61
2021/11/18 05:32:34;;;;;;;0.30;0.30;;;20.60;31.60;21.30;94922.00;;;;10395150;28;46395;-61
2021/11/18 05:37:35;;;;;;;0.40;0.22;;;20.70;31.60;21.30;94946.00;;;;10376814;28;45369;-61
2021/11/18 05:42:38;;;;;;;0.20;0.20;;;20.80;31.50;21.30;94956.00;;;;10360301;28;47194;-60
2021/11/18 05:47:39;;;;;;;1.30;0.30;;;20.80;31.50;21.30;94956.00;;;;10364784;28;47363;-60
2021/11/18 05:52:42;;;;;;;0.50;0.40;;;20.80;31.40;21.30;94962.00;;;;10435870;28;45215;-60
2021/11/18 05:57:46;;;;;;;0.30;0.30;;;20.80;31.40;21.40;94948.00;;;;10417310;28;46313;-61
2021/11/18 06:02:47;;;;;;;0.45;0.20;;;20.80;31.40;21.40;94957.00;;;;10417460;28;45225;-61
2021/11/18 06:07:47;;;;;;;1.25;0.28;;;20.90;31.50;21.40;94949.00;;;;10417120;28;45229;-61
2021/11/18 06:12:49;;;;;;;0.35;0.30;;;20.90;31.40;21.40;94962.00;;;;10434852;28;46560;-61
2021/11/18 06:17:50;;;;;;;0.30;0.30;;;20.90;31.50;21.40;94954.00;;;;10416101;28;46146;-61
2021/11/18 06:22:52;;;;;;;0.95;0.82;;;20.90;31.40;21.40;94964.00;;;;10402884;28;46023;-61
2021/11/18 06:27:53;;;;;;;1.27;0.88;;;20.90;31.20;21.40;94958.00;;;;10375283;28;45341;-61
2021/11/18 06:32:55;;;;;;;1.67;0.90;;;20.90;30.90;21.40;94978.00;;;;10375543;28;45442;-61
2021/11/18 06:37:57;;;;;;;1.85;1.02;;;20.90;30.80;21.40;94980.00;;;;10374993;28;45258;-62
2021/11/18 06:42:58;;;;;;;1.20;1.10;;;20.90;30.50;21.40;94994.00;;;;10374832;28;47319;-61
2021/11/18 06:47:58;;;;;;;1.15;1.02;;;20.90;30.40;21.40;94997.00;;;;10382387;28;46293;-61
2021/11/18 06:52:59;;;;;;;1.63;1.38;;;20.90;30.40;21.40;94999.00;;;;10415743;28;47545;-61
2021/11/18 06:58:00;;;;;;;1.75;1.20;;;20.90;30.40;21.40;94992.00;;;;10415832;28;45279;-61
2021/11/18 07:03:10;;;;;;;1.35;1.13;;;20.90;30.30;21.40;94993.00;;;;10416282;28;45345;-60
2021/11/18 07:08:11;;;;;;;1.00;0.80;;;20.90;30.10;21.40;95011.00;;;;10433343;28;45451;-61
2021/11/18 07:13:22;;;;;;;1.55;1.10;;;21.00;30.20;21.40;95012.00;;;;10398767;28;47439;-62
2021/11/18 07:18:24;;;;;;;1.25;0.95;;;21.00;30.10;21.50;94996.00;;;;10433331;28;46298;-61
2021/11/18 07:23:25;;;;;;;0.90;0.80;;;21.00;30.00;21.50;95034.00;;;;10408928;28;45449;-62
2021/11/18 07:28:29;;;;;;;1.83;0.93;;;21.00;30.10;21.50;95034.00;;;;10355423;28;47140;-60
2021/11/18 07:33:32;;;;;;;1.00;0.70;;;21.00;30.20;21.50;95031.00;;;;10380340;28;48307;-64
2021/11/18 07:38:34;;;;;;;1.02;0.70;;;21.00;30.60;21.60;95049.00;;;;10378790;28;47096;-60
2021/11/18 07:43:40;;;;;;;2.45;0.80;;;21.10;30.50;21.50;95036.00;;;;10396924;28;45222;-61
2021/11/18 07:48:45;;;;;;;1.65;1.00;;;21.00;30.20;21.50;95052.00;;;;10410338;28;45238;-60
2021/11/18 07:53:47;;;;;;;1.55;1.10;;;21.00;30.10;21.50;95045.00;;;;10421107;28;46561;-61
2021/11/18 07:58:47;;;;;;;1.70;1.30;;;21.00;30.00;21.50;95039.00;;;;10421118;28;45598;-60
2021/11/18 08:03:49;;;;;;;3.58;1.80;;;21.10;30.10;21.40;95053.00;;;;10421145;28;45149;-61
2021/11/18 08:08:51;;;;;;;3.13;1.70;;;21.00;29.80;21.40;95066.00;;;;10421029;28;45457;-61
2021/11/18 08:13:53;;;;;;;3.47;1.50;;;21.00;29.80;21.50;95047.00;;;;10404105;28;48331;-61
2021/11/18 08:18:53;;;;;;;1.95;1.38;;;21.00;29.90;21.50;95055.00;;;;10421014;28;45226;-62
2021/11/18 08:23:56;;;;;;;1.83;1.05;;;21.00;30.00;21.50;95057.00;;;;10397984;28;45420;-61
2021/11/18 08:28:57;;;;;;;2.53;1.20;;;21.00;30.00;21.50;95035.00;;;;10379391;28;45313;-60
2021/11/18 08:33:58;;;;;;;2.80;1.20;;;21.00;30.00;21.40;95053.00;;;;10379230;28;45265;-60
2021/11/18 08:38:58;;;;;;;1.90;1.33;;;21.00;30.00;21.40;95041.00;;;;10379424;28;46426;-61
2021/11/18 08:43:59;;;;;;;5.40;1.48;;;20.90;29.70;21.30;95062.00;;;;10378269;28;45215;-60
2021/11/18 08:49:01;;;;;;;3.65;1.10;;;20.90;29.70;21.40;95054.00;;;;10395326;28;45142;-61
2021/11/18 08:54:06;;;;;;;0.80;0.80;;;20.90;29.80;21.80;95077.00;;;;10419889;28;45826;-61
2021/11/18 08:59:08;;;;;;;2.38;0.70;;;21.20;30.30;21.90;95079.00;;;;10419646;28;46337;-61
2021/11/18 09:04:14;;;;;;;2.28;0.65;;;21.30;30.20;21.90;95075.00;;;;10420104;28;45315;-61
2021/11/18 09:09:21;;;;;;;1.23;0.68;;;21.30;30.00;21.90;95067.00;;;;10437574;28;45193;-61
2021/11/18 09:14:25;;;;;;;4.13;0.85;;;21.40;30.00;22.00;95092.00;;;;10419478;28;45249;-61
2021/11/18 09:19:30;;;;;;;2.55;1.58;;;21.40;30.00;21.00;95082.00;;;;10436709;28;45297;-61
2021/11/18 09:24:39;;;;;;;1.90;0.88;;;21.00;29.40;21.50;95090.00;;;;10373917;28;46919;-61
2021/11/18 09:29:42;;;;;;;1.77;0.80;;;21.00;30.00;21.70;95086.00;;;;10395067;28;45581;-62
2021/11/18 09:34:44;;;;;;;0.90;0.80;;;21.10;29.90;21.80;95087.00;;;;10376913;28;46269;-61
2021/11/18 09:39:45;;;;;;;2.95;0.68;;;21.20;29.90;21.80;95080.00;;;;10376542;28;46702;-61
2021/11/18 09:45:09;;;;;;;0.70;0.60;;;21.20;29.90;21.80;95099.00;;;;10377198;28;45534;-61
2021/11/18 09:50:48;;;;;;;0.98;0.68;;;21.30;30.00;21.80;95093.00;;;;10386114;28;46953;-61
2021/11/18 09:56:29;;;;;;;3.40;0.55;;;21.30;30.00;21.80;95103.00;;;;10411456;28;45401;-61
2021/11/18 10:02:09;;;;;;;0.85;0.65;;;21.30;30.00;21.80;95096.00;;;;10391793;28;45555;-61
2021/11/18 10:07:54;;;;;;;1.38;1.00;;;21.20;30.00;21.70;95089.00;;;;10392965;28;46799;-63
2021/11/18 10:13:29;;;;;;;2.22;1.35;;;21.20;30.20;21.60;95093.00;;;;10392084;28;45196;-63
2021/11/18 10:18:40;;;;;;;1.33;0.90;;;21.10;29.60;21.60;95094.00;;;;10404108;28;45599;-61
2021/11/18 10:23:43;;;;;;;2.47;1.15;;;21.10;29.80;21.60;95101.00;;;;10374953;28;45283;-61
2021/11/18 10:29:08;;;;;;;1.45;1.10;;;21.10;29.80;21.50;95108.00;;;;10392579;28;45440;-61
2021/11/18 10:34:21;;;;;;;3.05;1.40;;;21.00;29.30;21.50;95099.00;;;;10370717;28;46275;-61
2021/11/18 10:39:40;;;;;;;1.90;1.23;;;21.00;29.90;21.40;95094.00;;;;10391792;28;45260;-60
2021/11/18 10:44:51;;;;;;;1.83;0.93;;;21.00;29.20;21.50;95094.00;;;;10388126;28;45148;-60
2021/11/18 10:50:42;;;;;;;4.43;0.82;;;21.00;29.40;21.70;95088.00;;;;10374818;28;45262;-60
2021/11/18 10:56:01;;;;;;;1.95;0.80;;;21.10;29.40;21.70;95089.00;;;;10357967;28;46904;-60
2021/11/18 11:01:24;;;;;;;2.78;0.75;;;21.10;29.30;21.80;95096.00;;;;10375023;28;45204;-61
2021/11/18 11:06:42;;;;;;;3.00;0.82;;;21.20;29.40;21.80;95077.00;;;;10391832;28;45997;-62
2021/11/18 11:11:59;;;;;;;2.65;0.80;;;21.30;29.50;21.90;95082.00;;;;10392582;28;46617;-61
2021/11/18 11:17:57;;;;;;;1.58;1.10;;;21.30;29.50;21.90;95061.00;;;;10373034;28;47070;-61
2021/11/18 11:24:05;;;;;;;1.48;0.80;;;21.40;29.50;21.90;95080.00;;;;10407269;28;46337;-62
2021/11/18 11:29:23;;;;;;;3.55;1.00;;;21.40;29.50;21.80;95068.00;;;;10398411;28;45349;-61
2021/11/18 11:34:45;;;;;;;1.40;0.85;;;21.30;29.50;21.80;95077.00;;;;10432873;28;45960;-60
2021/11/18 11:40:10;;;;;;;1.50;0.60;;;21.30;29.60;21.70;95078.00;;;;10432793;28;45175;-62
2021/11/18 11:45:22;;;;;;;0.90;0.60;;;21.20;29.60;21.60;95073.00;;;;10415133;28;45224;-61
2021/11/18 11:50:41;;;;;;;0.88;0.70;;;21.20;29.60;21.60;95078.00;;;;10383330;28;46890;-61
2021/11/18 11:56:21;;;;;;;2.38;0.70;;;21.10;29.90;21.70;95060.00;;;;10389597;28;46320;-60
2021/11/18 12:02:00;;;;;;;0.65;0.60;;;21.20;30.10;21.70;95055.00;;;;10385254;28;45318;-61
2021/11/18 12:07:09;;;;;;;0.93;0.60;;;21.20;30.10;21.70;95046.00;;;;10370258;28;45927;-61
2021/11/18 12:12:21;;;;;;;0.60;0.57;;;21.20;30.00;21.70;95056.00;;;;10390246;28;46576;-60
2021/11/18 12:17:27;;;;;;;0.88;0.55;;;21.10;30.00;21.70;95043.00;;;;10390674;28;46317;-62
2021/11/18 12:22:37;;;;;;;1.00;0.60;;;21.20;30.00;21.70;95015.00;;;;10407007;28;45145;-61
2021/11/18 12:27:59;;;;;;;0.57;0.50;;;21.20;30.00;21.70;95018.00;;;;10438034;28;45228;-62
2021/11/18 12:33:17;;;;;;;0.60;0.40;;;21.20;30.00;21.70;95017.00;;;;10436542;28;45241;-61
2021/11/18 12:38:40;;;;;;;0.85;0.57;;;21.20;30.00;21.70;95022.00;;;;10438294;28;45230;-62
2021/11/18 12:44:20;;;;;;;1.30;0.57;;;21.20;30.00;21.70;95008.00;;;;10420273;28;45262;-60
2021/11/18 12:49:55;;;;;;;0.55;0.50;;;21.20;30.00;21.70;95018.00;;;;10418741;28;46231;-61
2021/11/18 12:55:39;;;;;;;1.02;0.45;;;21.20;30.00;21.70;95008.00;;;;10373265;28;48516;-61
2021/11/18 13:00:54;;;;;;;2.15;0.68;;;21.20;30.50;21.80;95002.00;;;;10401415;28;45209;-65
2021/11/18 13:05:56;;;;;;;1.95;0.50;;;21.30;31.10;21.80;95009.00;;;;10438076;28;45396;-62
2021/11/18 13:11:25;;;;;;;0.63;0.47;;;21.30;31.60;21.70;94989.00;;;;10402734;28;47513;-62
2021/11/18 13:16:46;;;;;;;0.88;0.40;;;21.20;30.80;21.70;95014.00;;;;10418778;28;45504;-60
2021/11/18 13:21:58;;;;;;;1.23;0.40;;;21.30;31.00;21.70;95000.00;;;;10392289;28;45303;-61
2021/11/18 13:26:58;;;;;;;1.40;0.50;;;21.20;30.60;21.70;94998.00;;;;10435995;28;45390;-61
2021/11/18 13:32:02;;;;;;;0.50;0.40;;;21.20;30.40;21.70;94999.00;;;;10436289;28;45541;-62
2021/11/18 13:37:18;;;;;;;1.23;0.50;;;21.20;30.30;21.70;94995.00;;;;10434935;28;45147;-61
2021/11/18 13:42:31;;;;;;;0.82;0.50;;;21.10;30.30;21.60;94994.00;;;;10418253;28;45277;-62
2021/11/18 13:47:37;;;;;;;0.75;0.43;;;21.10;30.30;21.70;95008.00;;;;10413473;28;45143;-62
2021/11/18 13:52:40;;;;;;;2.00;0.60;;;21.10;30.30;21.60;94996.00;;;;10376650;28;45704;-62
2021/11/18 13:57:51;;;;;;;1.05;0.70;;;21.10;30.30;21.60;95023.00;;;;10375830;28;45228;-61
2021/11/18 14:03:21;;;;;;;2.00;0.50;;;21.10;30.30;21.60;95023.00;;;;10375110;28;45202;-61
2021/11/18 14:08:31;;;;;;;1.30;0.68;;;21.10;30.30;21.60;95016.00;;;;10392421;28;45616;-61
2021/11/18 14:13:50;;;;;;;1.60;0.60;;;21.10;30.30;21.60;94999.00;;;;10375601;28;46705;-61
2021/11/18 14:19:12;;;;;;;1.30;0.70;;;21.10;30.20;21.60;95007.00;;;;10375661;28;45160;-62
2021/11/18 14:24:38;;;;;;;1.00;0.50;;;21.10;30.20;21.60;95008.00;;;;10419138;28;45149;-61
2021/11/18 14:30:09;;;;;;;0.80;0.65;;;21.10;30.20;21.60;95018.00;;;;10416696;28;47009;-61
2021/11/18 14:35:45;;;;;;;0.80;0.50;;;21.10;30.10;21.60;95023.00;;;;10399849;28;46917;-61
2021/11/18 14:41:01;;;;;;;0.88;0.60;;;21.10;30.20;21.60;95018.00;;;;10433614;28;46160;-61
2021/11/18 14:46:23;;;;;;;0.63;0.40;;;21.10;30.20;21.60;95024.00;;;;10433990;28;45536;-61
2021/11/18 14:51:29;;;;;;;1.20;0.50;;;21.10;30.20;21.60;95023.00;;;;10398420;28;45324;-61
2021/11/18 14:56:36;;;;;;;0.70;0.60;;;21.10;30.10;21.50;95027.00;;;;10389280;28;45154;-61
2021/11/18 15:01:39;;;;;;;9.95;1.40;;;21.10;30.00;21.50;95033.00;;;;10390803;28;45216;-61
2021/11/18 15:06:42;;;;;;;9.38;0.95;;;21.00;30.00;21.50;95017.00;;;;10388571;28;46909;-61
2021/11/18 15:11:46;;;;;;;5.60;0.88;;;21.00;29.80;21.50;95018.00;;;;10386724;28;45467;-66
2021/11/18 15:16:48;;;;;;;7.40;0.80;;;21.10;30.00;21.60;95009.00;;;;10413082;28;45316;-61
2021/11/18 15:21:51;;;;;;;5.40;0.73;;;21.10;30.10;21.60;95005.00;;;;10399019;28;48185;-64
2021/11/18 15:26:53;;;;;;;4.07;0.90;;;21.10;30.20;21.60;94997.00;;;;10424797;28;45702;-60
2021/11/18 15:31:57;;;;;;;2.97;1.20;;;21.10;29.50;21.60;94989.00;;;;10386352;28;45550;-64
2021/11/18 15:36:58;;;;;;;1.45;0.77;;;21.10;30.00;21.60;95007.00;;;;10355862;28;48405;-61
2021/11/18 15:42:02;;;;;;;3.45;0.88;;;21.10;29.70;21.50;95024.00;;;;10390249;28;45532;-61
2021/11/18 15:47:05;;;;;;;2.42;0.80;;;21.10;30.00;21.50;95032.00;;;;10355106;28;47111;-61
2021/11/18 15:52:24;;;;;;;2.05;1.00;;;21.10;29.70;21.50;95008.00;;;;10417937;28;45258;-61
2021/11/18 15:57:26;;;;;;;1.95;0.80;;;21.10;29.80;21.50;95026.00;;;;10404368;28;47296;-61
2021/11/18 16:02:26;;;;;;;4.05;1.10;;;21.00;29.30;21.50;95019.00;;;;10439052;28;47114;-61
2021/11/18 16:07:27;;;;;;;2.55;1.23;;;21.00;29.50;21.40;95010.00;;;;10420623;28;45518;-61
2021/11/18 16:12:39;;;;;;;2.60;1.50;;;21.00;30.00;21.40;95046.00;;;;10421016;28;47587;-61
2021/11/18 16:17:42;;;;;;;1.95;1.30;;;20.90;29.50;21.40;95046.00;;;;10420759;28;45366;-61
2021/11/18 16:22:44;;;;;;;1.85;1.08;;;20.90;29.50;21.40;95060.00;;;;10412754;28;46164;-59
2021/11/18 16:27:46;;;;;;;2.92;1.20;;;20.90;29.80;21.50;95071.00;;;;10394416;28;45564;-65
2021/11/18 16:32:50;;;;;;;1.55;0.90;;;21.00;29.90;21.50;95058.00;;;;10380923;28;48310;-61
2021/11/18 16:37:52;;;;;;;3.05;0.90;;;21.00;29.90;21.50;95071.00;;;;10378687;28;45159;-62
2021/11/18 16:42:55;;;;;;;1.45;1.00;;;21.00;29.90;21.50;95068.00;;;;10413186;28;45208;-61
2021/11/18 16:47:57;;;;;;;1.80;1.13;;;21.00;29.80;21.50;95050.00;;;;10412468;28;46220;-61
2021/11/18 16:52:59;;;;;;;2.05;1.10;;;21.10;29.80;21.60;95076.00;;;;10396199;28;46444;-61
2021/11/18 16:58:00;;;;;;;2.58;1.30;;;21.10;29.80;21.60;95091.00;;;;10396599;28;45463;-61
2021/11/18 17:03:02;;;;;;;2.22;1.58;;;21.10;30.20;21.60;95074.00;;;;10418857;28;45131;-62
2021/11/18 17:08:05;;;;;;;3.28;1.80;;;21.10;29.70;21.60;95062.00;;;;10402408;28;47193;-61
2021/11/18 17:13:06;;;;;;;2.47;1.80;;;21.10;29.60;21.60;95077.00;;;;10402499;28;47077;-61
2021/11/18 17:18:09;;;;;;;2.50;1.73;;;21.10;29.70;21.60;95065.00;;;;10437221;28;45248;-61
2021/11/18 17:23:10;;;;;;;2.88;2.03;;;21.10;29.60;21.60;95082.00;;;;10402142;28;45457;-60
2021/11/18 17:28:12;;;;;;;2.88;1.88;;;21.10;29.60;21.70;95087.00;;;;10376472;28;45504;-60
2021/11/18 17:33:17;;;;;;;3.38;1.90;;;21.20;29.60;21.80;95084.00;;;;10404392;28;45365;-61
2021/11/18 17:38:22;;;;;;;3.80;1.77;;;21.30;29.60;21.80;95089.00;;;;10376619;28;47009;-63
2021/11/18 17:43:24;;;;;;;2.50;1.63;;;21.30;29.80;21.70;95095.00;;;;10375984;28;45621;-61
2021/11/18 17:48:28;;;;;;;4.43;1.63;;;21.30;29.70;21.70;95082.00;;;;10391986;28;47028;-61
2021/11/18 17:53:29;;;;;;;3.25;1.70;;;21.20;29.60;21.70;95071.00;;;;10392993;28;45209;-61
2021/11/18 17:58:35;;;;;;;3.25;1.77;;;21.20;29.60;21.70;95082.00;;;;10392717;28;46259;-61
2021/11/18 18:03:40;;;;;;;4.67;1.63;;;21.20;29.60;21.70;95097.00;;;;10392152;28;46966;-62
2021/11/18 18:08:42;;;;;;;2.03;1.50;;;21.20;29.60;21.60;95101.00;;;;10391326;28;47336;-61
2021/11/18 18:13:44;;;;;;;2.22;1.58;;;21.10;30.00;21.60;95113.00;;;;10389771;28;45578;-61
2021/11/18 18:18:45;;;;;;;2.60;1.55;;;21.10;29.50;21.60;95110.00;;;;10391515;28;48045;-61
2021/11/18 18:23:49;;;;;;;1.98;1.40;;;21.10;29.40;21.60;95096.00;;;;10413487;28;46395;-62
2021/11/18 18:28:50;;;;;;;2.13;1.52;;;21.10;29.50;21.60;95116.00;;;;10413240;28;45575;-60
2021/11/18 18:33:51;;;;;;;2.58;1.52;;;21.10;29.50;21.70;95127.00;;;;10414797;28;45234;-60
2021/11/18 18:38:54;;;;;;;3.00;1.95;;;21.20;30.00;21.60;95115.00;;;;10357971;28;48243;-61
2021/11/18 18:43:58;;;;;;;3.10;2.00;;;21.10;29.10;21.60;95138.00;;;;10392721;28;46284;-61
2021/11/18 18:48:59;;;;;;;2.20;1.58;;;21.10;29.00;21.60;95129.00;;;;10387709;28;46039;-59
2021/11/18 18:54:00;;;;;;;2.58;1.75;;;21.10;29.00;21.70;95131.00;;;;10374279;28;46061;-59
2021/11/18 18:59:08;;;;;;;3.22;1.45;;;21.20;29.30;21.70;95146.00;;;;10374536;28;45275;-60
2021/11/18 19:04:09;;;;;;;4.25;1.58;;;21.20;29.60;21.50;95146.00;;;;10388545;28;45432;-64
2021/11/18 19:09:13;;;;;;;2.08;1.50;;;21.10;29.10;21.60;95159.00;;;;10433680;28;46099;-61
2021/11/18 19:14:16;;;;;;;1.90;1.33;;;21.10;29.30;21.60;95142.00;;;;10383720;28;47065;-61
2021/11/18 19:19:36;;;;;;;2.97;1.50;;;21.10;29.30;21.60;95143.00;;;;10389503;28;45344;-61
2021/11/18 19:24:38;;;;;;;2.88;1.70;;;21.10;29.30;21.70;95139.00;;;;10418276;28;47335;-61
2021/11/18 19:35:10;;;;;;;3.17;1.70;;;21.30;29.40;21.90;95138.00;;;;10415480;28;45455;-61
2021/11/18 19:40:20;;;;;;;3.30;1.80;;;21.30;29.30;22.00;95149.00;;;;10397601;28;48224;-61
2021/11/18 19:45:33;;;;;;;3.30;1.77;;;21.40;29.30;22.00;95146.00;;;;10433034;28;46002;-62
2021/11/18 19:50:36;;;;;;;4.60;1.52;;;21.40;29.40;21.80;95156.00;;;;10387503;28;45320;-61
2021/11/18 19:55:42;;;;;;;4.30;1.92;;;21.40;29.90;21.80;95164.00;;;;10358891;28;45229;-62
2021/11/18 20:00:57;;;;;;;2.83;1.73;;;21.30;29.40;21.70;95146.00;;;;10345839;28;45289;-61
2021/11/18 20:05:59;;;;;;;4.07;1.60;;;21.30;29.40;21.70;95163.00;;;;10380225;28;45252;-62
2021/11/18 20:11:06;;;;;;;3.00;1.42;;;21.20;29.40;21.70;95155.00;;;;10356951;28;47229;-61
2021/11/18 20:16:08;;;;;;;2.20;1.40;;;21.20;29.50;21.70;95169.00;;;;10356070;28;46968;-61
2021/11/18 20:21:17;;;;;;;2.58;1.50;;;21.20;29.50;21.70;95173.00;;;;10372780;28;45373;-62
2021/11/18 20:26:19;;;;;;;2.85;1.30;;;21.20;29.50;21.70;95169.00;;;;10372221;28;46083;-61
2021/11/18 20:31:27;;;;;;;2.17;1.23;;;21.10;29.50;21.70;95181.00;;;;10372508;28;45343;-61
2021/11/18 20:36:28;;;;;;;1.48;0.98;;;21.20;29.60;21.70;95175.00;;;;10389708;28;45268;-62
2021/11/18 20:41:31;;;;;;;1.92;1.30;;;21.20;29.60;21.70;95165.00;;;;10384237;28;47955;-61
2021/11/18 20:46:36;;;;;;;1.63;1.13;;;21.20;29.60;21.70;95188.00;;;;10370776;28;46648;-61
2021/11/18 20:51:47;;;;;;;1.85;1.25;;;21.20;29.60;21.70;95189.00;;;;10432674;28;48083;-62
2021/11/18 20:56:54;;;;;;;1.20;0.90;;;21.20;30.10;21.70;95178.00;;;;10419739;28;45669;-62
2021/11/18 21:02:05;;;;;;;1.10;1.00;;;21.20;29.60;21.70;95175.00;;;;10419597;28;45371;-61
2021/11/18 21:07:09;;;;;;;2.30;1.00;;;21.20;29.60;21.70;95180.00;;;;10402811;28;47136;-62
2021/11/18 21:12:14;;;;;;;1.55;1.20;;;21.20;29.70;21.70;95176.00;;;;10396288;28;45326;-61
2021/11/18 21:17:19;;;;;;;1.92;1.00;;;21.20;29.60;21.70;95178.00;;;;10393561;28;45897;-61
2021/11/18 21:22:23;;;;;;;1.65;1.08;;;21.20;29.60;21.70;95174.00;;;;10404569;28;46664;-61
2021/11/18 21:27:24;;;;;;;1.13;1.00;;;21.20;29.60;21.60;95174.00;;;;10418352;28;45323;-61
2021/11/18 21:32:28;;;;;;;1.70;1.35;;;21.10;29.60;21.60;95170.00;;;;10436681;28;46243;-61
2021/11/18 21:37:31;;;;;;;1.77;1.30;;;21.10;29.50;21.60;95159.00;;;;10410865;28;45162;-61
2021/11/18 21:42:32;;;;;;;2.38;1.20;;;21.10;29.60;21.60;95157.00;;;;10352466;28;46754;-61
2021/11/18 21:47:53;;;;;;;2.55;1.13;;;21.10;29.60;21.50;95164.00;;;;10380685;28;45313;-61
2021/11/18 21:52:55;;;;;;;2.03;1.50;;;21.10;29.60;21.50;95166.00;;;;10435786;28;45217;-62
2021/11/18 21:57:59;;;;;;;1.88;1.30;;;21.00;29.50;21.50;95152.00;;;;10378617;28;45259;-61
2021/11/18 22:03:02;;;;;;;1.30;1.00;;;21.00;29.60;21.50;95143.00;;;;10382039;28;45263;-62
2021/11/18 22:08:04;;;;;;;2.17;1.40;;;20.90;29.60;21.40;95162.00;;;;10364644;28;46087;-62
2021/11/18 22:13:09;;;;;;;1.77;1.30;;;20.90;29.50;21.50;95153.00;;;;10366020;28;45450;-62
2021/11/18 22:18:11;;;;;;;1.30;1.10;;;20.90;29.60;21.40;95160.00;;;;10353187;28;46389;-61
2021/11/18 22:23:13;;;;;;;2.80;1.30;;;20.90;29.50;21.40;95164.00;;;;10386384;28;45178;-62
2021/11/18 22:28:16;;;;;;;1.63;1.30;;;20.90;29.60;21.40;95150.00;;;;10363169;28;45265;-61
2021/11/18 22:33:17;;;;;;;1.40;1.00;;;20.90;29.60;21.40;95149.00;;;;10361580;28;46052;-61
2021/11/18 22:38:20;;;;;;;1.08;0.88;;;20.90;29.50;21.40;95146.00;;;;10375181;28;45190;-61